createdAt,value
2022-08-01T00:01:59.792Z,10.27
2022-08-01T00:04:26.575Z,10.60
2022-08-01T00:06:53.109Z,8.48
2022-08-01T00:09:23.762Z,13.43
2022-08-01T00:14:32.057Z,10.63
2022-08-01T00:17:05.251Z,11.25
2022-08-01T00:19:34.131Z,9.25
2022-08-01T00:22:00.863Z,9.48
2022-08-01T00:24:28.246Z,7.93
2022-08-01T00:26:54.849Z,12.93
2022-08-01T00:30:09.830Z,10.10
2022-08-01T00:32:08.485Z,9.77
2022-08-01T00:34:35.208Z,7.30
2022-08-01T00:37:01.856Z,8.55
2022-08-01T00:39:28.380Z,13.30
2022-08-01T00:41:59.614Z,11.60
2022-08-01T00:44:35.142Z,7.45
2022-08-01T00:47:02.047Z,5.93
2022-08-01T00:49:28.971Z,9.32
2022-08-01T00:51:56.207Z,8.23
2022-08-01T00:54:24.566Z,8.02
2022-08-01T00:56:51.140Z,6.95
2022-08-01T00:59:18.935Z,10.45
2022-08-01T01:01:50.048Z,6.40
2022-08-01T01:04:17.473Z,6.63
2022-08-01T01:06:53.108Z,5.80
2022-08-01T01:09:37.383Z,8.63
2022-08-01T01:12:18.973Z,6.32
2022-08-01T01:14:54.902Z,5.75
2022-08-01T01:17:49.927Z,7.53
2022-08-01T01:20:15.204Z,8.57
2022-08-01T01:23:01.965Z,11.75
2022-08-01T01:25:37.781Z,6.70
2022-08-01T01:28:22.021Z,10.02
2022-08-01T01:30:52.355Z,9.40
2022-08-01T01:33:20.687Z,10.27
2022-08-01T01:35:50.246Z,13.15
2022-08-01T01:38:22.603Z,11.98
2022-08-01T01:40:50.422Z,9.60
2022-08-01T01:43:17.910Z,10.80
2022-08-01T01:45:47.083Z,13.05
2022-08-01T01:48:15.063Z,15.15
2022-08-01T01:50:42.362Z,10.75
2022-08-01T01:53:15.181Z,6.93
2022-08-01T01:55:49.272Z,7.82
2022-08-01T01:58:17.371Z,6.55
2022-08-01T02:00:45.830Z,5.65
2022-08-01T02:03:13.409Z,7.80
2022-08-01T02:05:40.875Z,7.07
2022-08-01T02:08:09.155Z,7.40
2022-08-01T02:10:36.467Z,8.35
2022-08-01T02:13:05.155Z,9.23
2022-08-01T02:15:32.876Z,10.32
2022-08-01T02:18:01.101Z,16.38
2022-08-01T02:20:30.440Z,13.65
2022-08-01T02:23:01.752Z,14.80
2022-08-01T02:25:33.092Z,12.63
2022-08-01T02:28:06.513Z,21.27
2022-08-01T02:30:36.962Z,21.65
2022-08-01T02:33:32.821Z,19.42
2022-08-01T02:36:32.469Z,27.67
2022-08-01T02:38:47.913Z,20.52
2022-08-01T02:41:19.572Z,27.85
2022-08-01T02:43:50.724Z,25.98
2022-08-01T02:46:40.902Z,30.95
2022-08-01T02:49:09.139Z,31.73
2022-08-01T02:51:37.011Z,26.25
2022-08-01T02:54:05.100Z,27.40
2022-08-01T02:56:38.617Z,27.05
2022-08-01T02:59:22.212Z,27.90
2022-08-01T03:01:50.179Z,23.83
2022-08-01T03:04:18.841Z,27.27
2022-08-01T03:06:45.779Z,26.95
2022-08-01T03:09:13.031Z,26.17
2022-08-01T03:11:42.107Z,23.10
2022-08-01T03:14:10.062Z,27.13
2022-08-01T03:16:39.327Z,30.17
2022-08-01T03:19:06.484Z,28.63
2022-08-01T03:21:33.556Z,27.08
2022-08-01T03:24:01.636Z,24.33
2022-08-01T03:26:30.433Z,24.77
2022-08-01T03:28:58.811Z,30.52
2022-08-01T03:31:26.381Z,26.23
2022-08-01T03:33:53.079Z,29.70
2022-08-01T03:36:22.537Z,28.50
2022-08-01T03:38:50.698Z,25.77
2022-08-01T03:41:22.086Z,26.65
2022-08-01T03:43:59.691Z,26.25
2022-08-01T03:46:31.333Z,28.90
2022-08-01T03:49:02.185Z,29.67
2022-08-01T03:51:30.911Z,24.23
2022-08-01T03:53:58.635Z,25.65
2022-08-01T03:56:25.309Z,25.85
2022-08-01T03:58:52.277Z,24.65
2022-08-01T04:01:19.927Z,20.83
2022-08-01T04:03:46.914Z,26.42
2022-08-01T04:06:14.943Z,24.63
2022-08-01T04:08:42.247Z,26.33
2022-08-01T04:11:10.051Z,26.35
2022-08-01T04:13:38.303Z,22.67
2022-08-01T04:16:05.730Z,29.33
2022-08-01T04:18:33.091Z,23.60
2022-08-01T04:20:59.627Z,24.95
2022-08-01T04:23:26.595Z,30.27
2022-08-01T04:25:53.593Z,36.55
2022-08-01T04:28:20.733Z,35.45
2022-08-01T04:30:48.581Z,33.28
2022-08-01T04:33:17.231Z,32.35
2022-08-01T04:36:01.810Z,39.13
2022-08-01T04:38:32.459Z,26.30
2022-08-01T04:40:59.138Z,30.95
2022-08-01T04:43:35.072Z,28.90
2022-08-01T04:46:04.720Z,30.85
2022-08-01T04:48:32.865Z,29.58
2022-08-01T04:50:59.444Z,37.10
2022-08-01T04:53:27.047Z,34.08
2022-08-01T04:55:53.578Z,33.38
2022-08-01T04:58:20.192Z,31.30
2022-08-01T05:00:47.827Z,29.40
2022-08-01T05:03:14.591Z,38.58
2022-08-01T05:05:41.295Z,37.17
2022-08-01T05:08:07.878Z,31.77
2022-08-01T05:10:34.922Z,39.22
2022-08-01T05:13:01.484Z,30.42
2022-08-01T05:15:28.165Z,31.85
2022-08-01T05:17:55.316Z,34.25
2022-08-01T05:20:22.310Z,32.53
2022-08-01T05:22:49.163Z,38.80
2022-08-01T05:25:20.017Z,34.40
2022-08-01T05:27:47.056Z,35.30
2022-08-01T05:30:16.922Z,38.13
2022-08-01T05:32:43.463Z,33.13
2022-08-01T05:35:10.515Z,38.33
2022-08-01T05:37:37.036Z,34.05
2022-08-01T05:40:04.402Z,35.30
2022-08-01T05:42:31.211Z,31.00
2022-08-01T05:44:57.867Z,31.05
2022-08-01T05:47:24.483Z,29.13
2022-08-01T05:49:51.007Z,25.48
2022-08-01T05:52:17.604Z,26.67
2022-08-01T05:54:44.139Z,31.23
2022-08-01T05:57:11.235Z,29.25
2022-08-01T05:59:39.005Z,23.33
2022-08-01T06:02:05.984Z,24.83
2022-08-01T06:04:32.717Z,24.20
2022-08-01T06:06:59.362Z,25.45
2022-08-01T06:09:25.923Z,25.55
2022-08-01T06:11:52.517Z,22.42
2022-08-01T06:14:19.038Z,24.80
2022-08-01T06:16:45.602Z,28.70
2022-08-01T06:19:12.142Z,26.73
2022-08-01T06:21:38.685Z,21.98
2022-08-01T06:24:05.719Z,22.95
2022-08-01T06:26:32.350Z,23.17
2022-08-01T06:28:59.053Z,28.52
2022-08-01T06:31:27.635Z,21.75
2022-08-01T06:33:58.185Z,22.52
2022-08-01T06:36:24.762Z,22.88
2022-08-01T06:38:51.284Z,26.55
2022-08-01T06:41:17.877Z,24.42
2022-08-01T06:43:44.394Z,26.38
2022-08-01T06:46:11.022Z,24.30
2022-08-01T06:48:40.283Z,25.45
2022-08-01T06:51:09.706Z,27.17
2022-08-01T06:53:37.597Z,22.52
2022-08-01T06:56:05.247Z,27.38
2022-08-01T06:58:32.025Z,26.48
2022-08-01T07:00:58.819Z,25.92
2022-08-01T07:03:26.550Z,20.35
2022-08-01T07:05:54.339Z,23.27
2022-08-01T07:08:22.043Z,21.15
2022-08-01T07:10:48.666Z,24.13
2022-08-01T07:13:18.864Z,22.20
2022-08-01T07:15:45.377Z,23.70
2022-08-01T07:18:11.902Z,25.80
2022-08-01T07:20:50.238Z,23.10
2022-08-01T07:23:22.599Z,23.20
2022-08-01T07:25:52.551Z,24.17
2022-08-01T07:28:19.381Z,23.90
2022-08-01T07:30:45.997Z,21.00
2022-08-01T07:33:13.053Z,20.67
2022-08-01T07:35:40.448Z,24.65
2022-08-01T07:38:12.336Z,18.95
2022-08-01T07:40:39.256Z,19.02
2022-08-01T07:43:05.846Z,16.80
2022-08-01T07:45:32.871Z,22.35
2022-08-01T07:48:04.458Z,16.00
2022-08-01T07:50:35.576Z,17.35
2022-08-01T07:53:03.469Z,18.92
2022-08-01T07:55:30.149Z,17.88
2022-08-01T07:57:57.046Z,16.05
2022-08-01T08:00:23.630Z,18.88
2022-08-01T08:02:50.182Z,15.10
2022-08-01T08:05:16.771Z,13.18
2022-08-01T08:08:06.311Z,16.40
2022-08-01T08:10:33.337Z,14.80
2022-08-01T08:12:59.983Z,14.65
2022-08-01T08:15:26.506Z,14.82
2022-08-01T08:17:55.046Z,14.30
2022-08-01T08:20:28.001Z,17.15
2022-08-01T08:22:55.179Z,14.38
2022-08-01T08:25:26.748Z,14.43
2022-08-01T08:27:54.086Z,13.32
2022-08-01T08:30:20.781Z,14.85
2022-08-01T08:32:49.016Z,17.95
2022-08-01T08:35:23.249Z,13.75
2022-08-01T08:38:02.219Z,15.85
2022-08-01T08:40:32.431Z,16.67
2022-08-01T08:43:01.072Z,12.43
2022-08-01T08:45:30.942Z,11.65
2022-08-01T08:48:14.574Z,10.57
2022-08-01T08:50:42.658Z,11.13
2022-08-01T08:53:12.959Z,7.45
2022-08-01T08:55:56.473Z,7.32
2022-08-01T08:58:29.483Z,8.27
2022-08-01T09:00:58.850Z,7.50
2022-08-01T09:03:25.967Z,7.15
2022-08-01T09:05:52.647Z,6.88
2022-08-01T09:08:19.201Z,9.18
2022-08-01T09:10:45.738Z,5.85
2022-08-01T09:13:14.048Z,6.50
2022-08-01T09:15:48.370Z,10.77
2022-08-01T09:18:33.193Z,5.10
2022-08-01T09:21:21.112Z,5.93
2022-08-01T09:23:54.101Z,5.15
2022-08-01T09:26:41.719Z,4.28
2022-08-01T09:29:10.319Z,2.60
2022-08-01T09:31:47.577Z,2.50
2022-08-01T09:34:15.592Z,3.42
2022-08-01T09:36:59.341Z,2.35
2022-08-01T09:39:29.883Z,2.40
2022-08-01T09:41:58.792Z,2.05
2022-08-01T09:44:44.788Z,2.22
2022-08-01T09:47:21.580Z,1.80
2022-08-01T09:49:55.911Z,3.03
2022-08-01T09:52:28.783Z,1.60
2022-08-01T09:55:05.086Z,2.30
2022-08-01T09:57:31.676Z,1.90
2022-08-01T10:00:01.275Z,2.90
2022-08-01T10:02:36.392Z,2.13
2022-08-01T10:05:08.692Z,2.17
2022-08-01T10:07:59.595Z,2.70
2022-08-01T10:10:28.777Z,2.05
2022-08-01T10:12:57.367Z,2.58
2022-08-01T10:15:37.436Z,1.88
2022-08-01T10:18:16.851Z,2.15
2022-08-01T10:20:53.312Z,3.25
2022-08-01T10:26:08.491Z,1.50
2022-08-01T10:28:38.681Z,0.80
2022-08-01T10:31:12.666Z,1.20
2022-08-01T10:33:50.794Z,1.80
2022-08-01T10:36:25.457Z,2.05
2022-08-01T10:38:54.706Z,1.70
2022-08-01T10:41:22.210Z,1.33
2022-08-01T10:43:48.743Z,1.40
2022-08-01T10:46:15.500Z,1.58
2022-08-01T10:48:57.794Z,1.02
2022-08-01T10:51:51.160Z,2.20
2022-08-01T10:54:13.651Z,1.30
2022-08-01T10:56:43.945Z,0.80
2022-08-01T11:01:45.298Z,0.80
2022-08-01T11:04:17.911Z,0.90
2022-08-01T11:06:54.815Z,1.20
2022-08-01T11:09:39.066Z,1.17
2022-08-01T11:12:13.650Z,2.00
2022-08-01T11:14:59.214Z,1.15
2022-08-01T11:17:48.868Z,1.52
2022-08-01T11:20:17.588Z,3.83
2022-08-01T11:23:00.074Z,1.63
2022-08-01T11:26:06.519Z,3.35
2022-08-01T11:28:33.827Z,1.55
2022-08-01T11:31:11.294Z,3.55
2022-08-01T11:33:46.005Z,1.75
2022-08-01T11:36:22.215Z,1.85
2022-08-01T11:39:13.450Z,1.67
2022-08-01T11:41:41.988Z,1.50
2022-08-01T11:44:10.159Z,3.55
2022-08-01T11:47:08.905Z,2.17
2022-08-01T11:49:45.284Z,1.45
2022-08-01T11:52:29.111Z,1.20
2022-08-01T11:54:57.562Z,3.67
2022-08-01T11:57:34.156Z,1.45
2022-08-01T12:00:05.315Z,1.40
2022-08-01T12:02:35.922Z,2.22
2022-08-01T12:05:12.764Z,1.52
2022-08-01T12:07:42.491Z,3.25
2022-08-01T12:10:11.729Z,1.52
2022-08-01T12:12:44.312Z,1.50
2022-08-01T12:15:12.722Z,2.25
2022-08-01T12:17:45.812Z,2.28
2022-08-01T12:20:31.298Z,2.97
2022-08-01T12:23:01.208Z,3.83
2022-08-01T12:25:27.777Z,0.82
2022-08-01T12:27:56.546Z,1.25
2022-08-01T12:30:25.002Z,1.48
2022-08-01T12:32:52.312Z,1.25
2022-08-01T12:35:24.426Z,1.67
2022-08-01T12:37:59.577Z,1.20
2022-08-01T12:40:31.594Z,1.83
2022-08-01T12:42:59.474Z,1.60
2022-08-01T12:45:36.528Z,1.10
2022-08-01T12:48:08.592Z,2.10
2022-08-01T12:50:37.493Z,1.40
2022-08-01T12:53:04.118Z,1.48
2022-08-01T12:55:34.721Z,1.15
2022-08-01T12:58:20.170Z,1.35
2022-08-01T13:00:48.808Z,1.63
2022-08-01T13:03:16.674Z,1.85
2022-08-01T13:05:44.793Z,0.73
2022-08-01T13:08:14.874Z,1.90
2022-08-01T13:13:08.344Z,0.95
2022-08-01T13:15:41.798Z,2.63
2022-08-01T13:18:30.586Z,1.30
2022-08-01T13:21:24.307Z,1.77
2022-08-01T13:24:11.763Z,1.08
2022-08-01T13:26:48.355Z,2.05
2022-08-01T13:29:17.747Z,2.35
2022-08-01T13:31:44.860Z,2.17
2022-08-01T13:34:12.035Z,1.80
2022-08-01T13:36:39.080Z,1.45
2022-08-01T13:39:24.572Z,3.65
2022-08-01T13:41:51.570Z,1.42
2022-08-01T13:44:18.100Z,4.55
2022-08-01T13:46:49.365Z,1.10
2022-08-01T13:49:17.729Z,1.30
2022-08-01T13:51:46.832Z,1.35
2022-08-01T13:54:13.554Z,1.17
2022-08-01T13:56:40.171Z,2.90
2022-08-01T13:59:07.556Z,0.90
2022-08-01T14:01:34.979Z,2.88
2022-08-01T14:04:02.050Z,1.20
2022-08-01T14:06:28.694Z,1.20
2022-08-01T14:08:55.210Z,1.45
2022-08-01T14:11:21.844Z,1.80
2022-08-01T14:13:48.381Z,1.80
2022-08-01T14:16:15.441Z,1.00
2022-08-01T14:18:44.082Z,0.90
2022-08-01T14:21:11.041Z,0.95
2022-08-01T14:23:37.674Z,3.08
2022-08-01T14:26:11.549Z,0.98
2022-08-01T14:28:39.412Z,0.93
2022-08-01T14:31:09.126Z,1.10
2022-08-01T14:33:35.958Z,1.77
2022-08-01T14:36:20.569Z,1.52
2022-08-01T14:38:49.736Z,2.85
2022-08-01T14:41:16.361Z,0.95
2022-08-01T14:43:43.121Z,0.88
2022-08-01T14:46:10.937Z,2.08
2022-08-01T14:48:37.616Z,1.00
2022-08-01T14:51:05.134Z,1.95
2022-08-01T14:53:35.746Z,1.10
2022-08-01T14:58:29.586Z,1.00
2022-08-01T15:00:58.837Z,2.22
2022-08-01T15:03:26.318Z,1.30
2022-08-01T15:05:52.834Z,0.90
2022-08-01T15:08:19.378Z,0.98
2022-08-01T15:10:45.937Z,0.45
2022-08-01T15:13:12.503Z,1.35
2022-08-01T15:15:39.054Z,0.80
2022-08-01T15:18:05.800Z,0.85
2022-08-01T15:20:33.823Z,1.45
2022-08-01T15:23:00.581Z,1.75
2022-08-01T15:25:41.856Z,0.80
2022-08-01T15:28:10.488Z,1.13
2022-08-01T15:30:37.295Z,0.80
2022-08-01T15:33:04.056Z,2.35
2022-08-01T15:35:30.630Z,2.47
2022-08-01T15:37:57.259Z,1.02
2022-08-01T15:40:23.898Z,0.65
2022-08-01T15:42:50.466Z,2.58
2022-08-01T15:45:45.699Z,1.70
2022-08-01T15:48:08.441Z,0.50
2022-08-01T15:50:35.447Z,0.73
2022-08-01T15:53:02.065Z,0.68
2022-08-01T15:55:28.749Z,1.90
2022-08-01T15:57:55.693Z,1.85
2022-08-01T16:00:22.304Z,2.40
2022-08-01T16:02:48.845Z,0.70
2022-08-01T16:05:16.006Z,1.38
2022-08-01T16:07:59.501Z,1.08
2022-08-01T16:10:29.573Z,1.35
2022-08-01T16:12:56.173Z,1.38
2022-08-01T16:15:23.035Z,0.65
2022-08-01T16:18:03.011Z,1.90
2022-08-01T16:20:29.976Z,2.30
2022-08-01T16:22:56.535Z,0.95
2022-08-01T16:25:23.165Z,0.95
2022-08-01T16:27:50.146Z,0.90
2022-08-01T16:30:16.876Z,2.35
2022-08-01T16:32:45.291Z,1.13
2022-08-01T16:35:14.935Z,2.83
2022-08-01T16:37:41.471Z,0.98
2022-08-01T16:40:08.301Z,0.90
2022-08-01T16:42:34.963Z,1.85
2022-08-01T16:45:03.929Z,0.88
2022-08-01T16:47:35.688Z,1.10
2022-08-01T16:50:02.221Z,1.25
2022-08-01T16:52:28.959Z,1.13
2022-08-01T16:54:57.445Z,1.30
2022-08-01T16:57:24.337Z,0.90
2022-08-01T16:59:50.892Z,1.42
2022-08-01T17:02:17.439Z,1.80
2022-08-01T17:04:44.076Z,1.40
2022-08-01T17:07:10.931Z,1.23
2022-08-01T17:09:43.168Z,2.42
2022-08-01T17:12:11.874Z,0.80
2022-08-01T17:14:39.981Z,2.33
2022-08-01T17:17:07.272Z,1.02
2022-08-01T17:19:34.298Z,0.90
2022-08-01T17:22:01.081Z,3.20
2022-08-01T17:24:27.779Z,1.88
2022-08-01T17:26:54.502Z,2.63
2022-08-01T17:29:21.084Z,3.38
2022-08-01T17:31:47.608Z,1.13
2022-08-01T17:34:14.422Z,1.75
2022-08-01T17:36:40.984Z,1.05
2022-08-01T17:39:08.815Z,2.92
2022-08-01T17:41:35.651Z,1.40
2022-08-01T17:44:02.281Z,1.30
2022-08-01T17:46:28.818Z,1.67
2022-08-01T17:48:55.381Z,1.13
2022-08-01T17:51:22.947Z,2.30
2022-08-01T17:53:55.753Z,4.15
2022-08-01T17:56:25.321Z,2.78
2022-08-01T17:58:52.399Z,2.95
2022-08-01T18:01:19.466Z,0.85
2022-08-01T18:03:46.676Z,3.25
2022-08-01T18:06:15.685Z,2.13
2022-08-01T18:08:42.843Z,1.10
2022-08-01T18:11:09.692Z,2.28
2022-08-01T18:13:36.644Z,1.05
2022-08-01T18:16:08.901Z,5.43
2022-08-01T18:18:35.900Z,1.38
2022-08-01T18:21:02.723Z,1.88
2022-08-01T18:23:29.318Z,1.33
2022-08-01T18:25:55.912Z,2.13
2022-08-01T18:28:32.361Z,0.63
2022-08-01T18:31:02.014Z,2.53
2022-08-01T18:33:28.648Z,1.23
2022-08-01T18:35:57.687Z,2.08
2022-08-01T18:38:32.228Z,1.80
2022-08-01T18:41:00.611Z,0.82
2022-08-01T18:43:27.415Z,3.78
2022-08-01T18:45:54.183Z,4.10
2022-08-01T18:48:20.711Z,1.65
2022-08-01T18:50:47.314Z,1.52
2022-08-01T18:53:13.892Z,1.30
2022-08-01T18:55:40.433Z,1.38
2022-08-01T18:58:06.995Z,1.33
2022-08-01T19:00:33.648Z,1.95
2022-08-01T19:03:00.307Z,3.10
2022-08-01T19:05:26.854Z,2.25
2022-08-01T19:08:06.467Z,1.13
2022-08-01T19:10:41.262Z,2.80
2022-08-01T19:13:08.627Z,1.67
2022-08-01T19:15:35.803Z,2.50
2022-08-01T19:18:03.189Z,3.47
2022-08-01T19:20:30.034Z,3.28
2022-08-01T19:22:56.725Z,1.15
2022-08-01T19:25:24.029Z,1.48
2022-08-01T19:27:50.620Z,2.85
2022-08-01T19:30:18.410Z,5.65
2022-08-01T19:32:46.607Z,4.43
2022-08-01T19:35:15.289Z,2.65
2022-08-01T19:37:54.085Z,1.25
2022-08-01T19:40:26.070Z,5.80
2022-08-01T19:42:54.846Z,3.58
2022-08-01T19:45:21.507Z,2.53
2022-08-01T19:47:56.178Z,1.70
2022-08-01T19:50:23.954Z,3.45
2022-08-01T19:52:52.042Z,3.28
2022-08-01T19:55:18.961Z,3.38
2022-08-01T19:57:59.331Z,1.90
2022-08-01T20:00:37.121Z,1.98
2022-08-01T20:03:04.293Z,1.45
2022-08-01T20:05:31.056Z,2.95
2022-08-01T20:07:58.644Z,3.15
2022-08-01T20:10:25.368Z,1.52
2022-08-01T20:12:52.735Z,1.67
2022-08-01T20:15:19.652Z,3.05
2022-08-01T20:17:46.246Z,1.73
2022-08-01T20:20:12.880Z,4.85
2022-08-01T20:22:41.266Z,2.60
2022-08-01T20:25:09.238Z,2.83
2022-08-01T20:27:36.007Z,2.17
2022-08-01T20:30:02.721Z,3.30
2022-08-01T20:32:33.544Z,2.10
2022-08-01T20:35:01.259Z,4.07
2022-08-01T20:38:01.251Z,2.70
2022-08-01T20:40:15.788Z,3.20
2022-08-01T20:42:45.414Z,6.75
2022-08-01T20:45:18.068Z,3.40
2022-08-01T20:47:46.868Z,2.47
2022-08-01T20:50:53.144Z,2.08
2022-08-01T20:53:18.847Z,3.08
2022-08-01T20:55:49.536Z,2.22
2022-08-01T20:58:23.597Z,3.90
2022-08-01T21:00:52.391Z,2.55
2022-08-01T21:03:26.241Z,7.53
2022-08-01T21:06:02.446Z,3.53
2022-08-01T21:08:35.907Z,2.63
2022-08-01T21:11:03.426Z,6.72
2022-08-01T21:13:41.655Z,3.28
2022-08-01T21:16:23.759Z,2.83
2022-08-01T21:21:53.519Z,3.13
2022-08-01T21:24:23.521Z,2.63
2022-08-01T21:26:50.338Z,3.47
2022-08-01T21:29:18.170Z,3.13
2022-08-01T21:31:46.368Z,2.90
2022-08-01T21:34:14.365Z,3.67
2022-08-01T21:36:44.399Z,3.35
2022-08-01T21:39:11.166Z,4.18
2022-08-01T21:42:01.359Z,2.67
2022-08-01T21:44:28.583Z,5.13
2022-08-01T21:49:23.420Z,5.47
2022-08-01T21:51:58.125Z,3.83
2022-08-01T21:54:29.103Z,3.83
2022-08-01T21:57:09.168Z,4.93
2022-08-01T21:59:38.739Z,4.43
2022-08-01T22:02:18.109Z,5.20
2022-08-01T22:04:52.923Z,3.25
2022-08-01T22:07:21.282Z,3.90
2022-08-01T22:09:49.711Z,2.95
2022-08-01T22:12:18.537Z,6.22
2022-08-01T22:14:49.033Z,4.38
2022-08-01T22:17:22.645Z,3.10
2022-08-01T22:19:56.276Z,5.07
2022-08-01T22:22:44.105Z,3.22
2022-08-01T22:25:12.364Z,4.30
2022-08-01T22:28:05.668Z,3.60
2022-08-01T22:30:29.286Z,4.50
2022-08-01T22:33:07.736Z,3.83
2022-08-01T22:35:47.678Z,2.97
2022-08-01T22:38:14.512Z,5.65
2022-08-01T22:41:05.411Z,5.53
2022-08-01T22:43:43.044Z,4.68
2022-08-01T22:46:16.474Z,3.47
2022-08-01T22:49:09.305Z,3.17
2022-08-01T22:51:54.550Z,3.53
2022-08-01T22:54:25.776Z,3.30
2022-08-01T22:56:56.175Z,3.30
2022-08-01T22:59:47.380Z,3.77
2022-08-01T23:02:16.166Z,2.70
2022-08-01T23:04:45.800Z,13.15
2022-08-01T23:07:16.819Z,4.15
2022-08-01T23:09:54.119Z,3.67
2022-08-01T23:12:23.191Z,3.08
2022-08-01T23:14:52.986Z,4.05
2022-08-01T23:17:27.169Z,4.28
2022-08-01T23:20:00.673Z,3.60
2022-08-01T23:22:30.274Z,3.65
2022-08-01T23:25:04.525Z,6.43
2022-08-01T23:27:51.936Z,5.28
2022-08-01T23:30:26.826Z,5.80
2022-08-01T23:32:53.779Z,4.07
2022-08-01T23:35:20.622Z,3.15
2022-08-01T23:37:47.251Z,2.88
2022-08-01T23:40:13.810Z,3.58
2022-08-01T23:42:40.340Z,3.78
2022-08-01T23:45:07.436Z,7.88
2022-08-01T23:47:33.971Z,3.45
2022-08-01T23:50:00.509Z,3.05
2022-08-01T23:52:32.500Z,9.50
2022-08-01T23:55:11.589Z,3.85
2022-08-01T23:57:41.800Z,2.97
